createdAt,value
2023-05-23T00:00:41.122Z,100.00
2023-05-23T00:03:11.265Z,100.00
2023-05-23T00:05:39.620Z,100.00
2023-05-23T00:08:18.410Z,100.00
2023-05-23T00:10:48.097Z,100.00
2023-05-23T00:13:16.284Z,100.00
2023-05-23T00:15:44.750Z,100.00
2023-05-23T00:18:13.016Z,100.00
2023-05-23T00:20:42.779Z,100.00
2023-05-23T00:23:13.903Z,100.00
2023-05-23T00:25:42.318Z,100.00
2023-05-23T00:28:12.342Z,100.00
2023-05-23T00:30:40.807Z,100.00
2023-05-23T00:33:09.578Z,100.00
2023-05-23T00:35:38.995Z,100.00
2023-05-23T00:38:33.334Z,100.00
2023-05-23T00:41:01.935Z,100.00
2023-05-23T00:43:33.852Z,100.00
2023-05-23T00:46:02.510Z,100.00
2023-05-23T00:48:31.825Z,100.00
2023-05-23T00:51:00.168Z,100.00
2023-05-23T00:53:29.074Z,100.00
2023-05-23T00:55:57.312Z,100.00
2023-05-23T00:58:26.325Z,100.00
2023-05-23T01:00:57.263Z,100.00
2023-05-23T01:03:28.786Z,100.00
2023-05-23T01:05:57.907Z,100.00
2023-05-23T01:08:29.885Z,100.00
2023-05-23T01:11:03.663Z,100.00
2023-05-23T01:13:48.971Z,100.00
2023-05-23T01:16:30.267Z,100.00
2023-05-23T01:19:08.754Z,100.00
2023-05-23T01:21:39.706Z,100.00
2023-05-23T01:24:36.361Z,100.00
2023-05-23T01:27:22.024Z,100.00
2023-05-23T01:29:58.535Z,100.00
2023-05-23T01:32:31.803Z,100.00
2023-05-23T01:35:02.028Z,100.00
2023-05-23T01:37:33.765Z,100.00
2023-05-23T01:40:05.946Z,100.00
2023-05-23T01:42:38.647Z,100.00
2023-05-23T01:45:17.761Z,100.00
2023-05-23T01:48:12.044Z,100.00
2023-05-23T01:50:45.736Z,100.00
2023-05-23T01:53:15.437Z,100.00
2023-05-23T01:55:51.423Z,100.00
2023-05-23T01:58:20.607Z,100.00
2023-05-23T02:01:06.316Z,100.00
2023-05-23T02:03:43.791Z,100.00
2023-05-23T02:06:12.278Z,100.00
2023-05-23T02:08:40.756Z,100.00
2023-05-23T02:11:10.891Z,100.00
2023-05-23T02:13:40.470Z,100.00
2023-05-23T02:16:14.577Z,100.00
2023-05-23T02:18:46.505Z,100.00
2023-05-23T02:21:16.903Z,100.00
2023-05-23T02:24:10.716Z,100.00
2023-05-23T02:26:53.364Z,100.00
2023-05-23T02:29:34.483Z,100.00
2023-05-23T02:32:08.772Z,100.00
2023-05-23T02:34:50.980Z,100.00
2023-05-23T02:37:22.383Z,100.00
2023-05-23T02:40:01.849Z,100.00
2023-05-23T02:42:39.127Z,100.00
2023-05-23T02:49:02.845Z,100.00
2023-05-23T02:51:33.306Z,100.00
2023-05-23T02:54:06.762Z,100.00
2023-05-23T02:56:34.863Z,100.00
2023-05-23T02:59:05.072Z,100.00
2023-05-23T03:01:43.838Z,100.00
2023-05-23T03:04:20.378Z,100.00
2023-05-23T03:06:55.582Z,100.00
2023-05-23T03:09:23.738Z,100.00
2023-05-23T03:11:53.146Z,100.00
2023-05-23T03:14:28.735Z,100.00
2023-05-23T03:17:00.473Z,100.00
2023-05-23T03:19:39.537Z,100.00
2023-05-23T03:22:08.044Z,100.00
2023-05-23T03:24:38.701Z,100.00
2023-05-23T03:27:09.641Z,100.00
2023-05-23T03:29:40.528Z,100.00
2023-05-23T03:32:09.228Z,100.00
2023-05-23T03:34:39.680Z,100.00
2023-05-23T03:37:07.789Z,100.00
2023-05-23T03:39:39.500Z,100.00
2023-05-23T03:42:12.512Z,100.00
2023-05-23T03:44:41.858Z,100.00
2023-05-23T03:47:10.610Z,100.00
2023-05-23T03:49:43.104Z,100.00
2023-05-23T03:52:13.114Z,100.00
2023-05-23T03:54:41.632Z,100.00
2023-05-23T03:57:11.378Z,100.00
2023-05-23T03:59:46.562Z,100.00
2023-05-23T04:02:17.094Z,100.00
2023-05-23T04:04:48.532Z,100.00
2023-05-23T04:07:18.102Z,100.00
2023-05-23T04:09:51.423Z,100.00
2023-05-23T04:12:38.647Z,100.00
2023-05-23T04:15:07.911Z,100.00
2023-05-23T04:17:36.062Z,100.00
2023-05-23T04:20:09.652Z,100.00
2023-05-23T04:22:43.934Z,100.00
2023-05-23T04:25:25.656Z,100.00
2023-05-23T04:27:56.252Z,100.00
2023-05-23T04:30:25.506Z,100.00
2023-05-23T04:32:54.048Z,100.00
2023-05-23T04:35:34.377Z,100.00
2023-05-23T04:38:04.179Z,100.00
2023-05-23T04:40:32.282Z,100.00
2023-05-23T04:43:00.250Z,100.00
2023-05-23T04:45:28.727Z,100.00
2023-05-23T04:47:59.158Z,100.00
2023-05-23T04:50:32.163Z,100.00
2023-05-23T04:53:01.373Z,100.00
2023-05-23T04:55:30.761Z,100.00
2023-05-23T04:57:59.209Z,100.00
2023-05-23T05:00:44.558Z,100.00
2023-05-23T05:03:13.384Z,100.00
2023-05-23T05:05:42.921Z,100.00
2023-05-23T05:08:11.585Z,100.00
2023-05-23T05:10:41.694Z,100.00
2023-05-23T05:13:12.518Z,100.00
2023-05-23T05:15:42.779Z,100.00
2023-05-23T05:18:15.040Z,100.00
2023-05-23T05:20:50.356Z,100.00
2023-05-23T05:23:20.021Z,100.00
2023-05-23T05:25:49.479Z,100.00
2023-05-23T05:28:18.115Z,100.00
2023-05-23T05:30:46.552Z,100.00
2023-05-23T05:33:16.072Z,100.00
2023-05-23T05:35:48.483Z,100.00
2023-05-23T05:38:20.310Z,100.00
2023-05-23T05:40:49.695Z,100.00
2023-05-23T05:43:17.875Z,100.00
2023-05-23T05:45:47.039Z,100.00
2023-05-23T05:48:21.511Z,100.00
2023-05-23T05:50:51.287Z,100.00
2023-05-23T05:53:19.881Z,100.00
2023-05-23T05:55:52.324Z,100.00
2023-05-23T05:58:21.641Z,100.00
2023-05-23T06:00:56.842Z,100.00
2023-05-23T06:03:26.531Z,100.00
2023-05-23T06:05:57.287Z,100.00
2023-05-23T06:08:25.480Z,100.00
2023-05-23T06:10:58.608Z,100.00
2023-05-23T06:13:49.711Z,100.00
2023-05-23T06:16:19.431Z,100.00
2023-05-23T06:19:13.589Z,100.00
2023-05-23T06:21:45.317Z,100.00
2023-05-23T06:24:13.457Z,100.00
2023-05-23T06:26:49.816Z,100.00
2023-05-23T06:29:19.816Z,100.00
2023-05-23T06:31:49.032Z,100.00
2023-05-23T06:34:17.832Z,100.00
2023-05-23T06:36:48.559Z,100.00
2023-05-23T06:39:16.716Z,100.00
2023-05-23T06:41:48.741Z,100.00
2023-05-23T06:44:18.576Z,100.00
2023-05-23T06:46:49.801Z,100.00
2023-05-23T06:49:17.939Z,100.00
2023-05-23T06:51:47.548Z,100.00
2023-05-23T06:54:15.717Z,100.00
2023-05-23T06:56:44.891Z,100.00
2023-05-23T06:59:13.397Z,100.00
2023-05-23T07:01:41.969Z,100.00
2023-05-23T07:04:12.244Z,100.00
2023-05-23T07:06:40.678Z,100.00
2023-05-23T07:09:13.215Z,100.00
2023-05-23T07:11:44.785Z,100.00
2023-05-23T07:14:13.613Z,100.00
2023-05-23T07:16:42.483Z,100.00
2023-05-23T07:19:10.897Z,100.00
2023-05-23T07:21:38.928Z,100.00
2023-05-23T07:24:10.728Z,100.00
2023-05-23T07:26:39.503Z,100.00
2023-05-23T07:29:07.978Z,100.00
2023-05-23T07:31:36.923Z,100.00
2023-05-23T07:34:15.646Z,100.00
2023-05-23T07:36:45.305Z,100.00
2023-05-23T07:39:22.186Z,100.00
2023-05-23T07:41:50.614Z,100.00
2023-05-23T07:44:24.926Z,100.00
2023-05-23T07:46:53.245Z,100.00
2023-05-23T07:49:21.732Z,100.00
2023-05-23T07:51:57.083Z,100.00
2023-05-23T07:54:28.483Z,100.00
2023-05-23T07:56:56.606Z,100.00
2023-05-23T07:59:33.434Z,100.00
2023-05-23T08:02:13.356Z,100.00
2023-05-23T08:04:53.684Z,100.00
2023-05-23T08:08:05.223Z,100.00
2023-05-23T08:11:27.159Z,100.00
2023-05-23T08:14:07.883Z,100.00
2023-05-23T08:16:41.577Z,100.00
2023-05-23T08:19:30.652Z,100.00
2023-05-23T08:21:59.048Z,100.00
2023-05-23T08:25:03.263Z,100.00
2023-05-23T08:27:31.995Z,100.00
2023-05-23T08:30:04.969Z,100.00
2023-05-23T08:32:33.194Z,100.00
2023-05-23T08:35:01.654Z,100.00
2023-05-23T08:37:29.676Z,100.00
2023-05-23T08:39:58.081Z,100.00
2023-05-23T08:42:26.423Z,100.00
2023-05-23T08:44:55.097Z,100.00
2023-05-23T08:47:25.260Z,100.00
2023-05-23T08:49:56.716Z,100.00
2023-05-23T08:52:26.720Z,100.00
2023-05-23T08:54:55.404Z,100.00
2023-05-23T08:57:23.674Z,100.00
2023-05-23T08:59:53.414Z,100.00
2023-05-23T09:02:21.792Z,100.00
2023-05-23T09:04:51.212Z,100.00
2023-05-23T09:07:20.977Z,100.00
2023-05-23T09:09:50.418Z,100.00
2023-05-23T09:12:18.836Z,100.00
2023-05-23T09:14:47.243Z,100.00
2023-05-23T09:17:19.140Z,100.00
2023-05-23T09:19:47.707Z,100.00
2023-05-23T09:22:18.318Z,100.00
2023-05-23T09:24:47.299Z,100.00
2023-05-23T09:27:15.721Z,100.00
2023-05-23T09:29:52.605Z,100.00
2023-05-23T09:32:22.174Z,100.00
2023-05-23T09:34:59.265Z,100.00
2023-05-23T09:37:34.190Z,100.00
2023-05-23T09:40:03.156Z,100.00
2023-05-23T09:42:35.293Z,100.00
2023-05-23T09:45:04.926Z,100.00
2023-05-23T09:47:48.483Z,100.00
2023-05-23T09:50:16.880Z,100.00
2023-05-23T09:52:48.359Z,100.00
2023-05-23T09:55:17.069Z,100.00
2023-05-23T09:57:46.073Z,100.00
2023-05-23T10:00:15.432Z,100.00
2023-05-23T10:02:57.095Z,100.00
2023-05-23T10:05:51.003Z,100.00
2023-05-23T10:08:27.411Z,100.00
2023-05-23T10:11:34.191Z,100.00
2023-05-23T10:14:04.595Z,100.00
2023-05-23T10:16:41.624Z,100.00
2023-05-23T10:19:18.985Z,100.00
2023-05-23T10:21:54.511Z,100.00
2023-05-23T10:24:26.367Z,100.00
2023-05-23T10:26:56.341Z,51.96
2023-05-23T10:29:25.129Z,9.95
2023-05-23T10:31:54.459Z,100.00
2023-05-23T10:34:31.639Z,100.00
2023-05-23T10:37:04.377Z,100.00
2023-05-23T10:39:47.719Z,100.00
2023-05-23T10:42:26.497Z,100.00
2023-05-23T10:44:54.758Z,100.00
2023-05-23T10:47:29.561Z,100.00
2023-05-23T10:49:58.295Z,100.00
2023-05-23T10:52:27.664Z,100.00
2023-05-23T10:54:58.447Z,55.06
2023-05-23T10:57:28.989Z,53.66
2023-05-23T10:59:57.582Z,62.98
2023-05-23T11:02:27.717Z,100.00
2023-05-23T11:05:20.912Z,100.00
2023-05-23T11:08:10.628Z,100.00
2023-05-23T11:10:56.956Z,100.00
2023-05-23T11:13:25.196Z,59.75
2023-05-23T11:15:53.411Z,26.68
2023-05-23T11:18:23.922Z,100.00
2023-05-23T11:20:56.093Z,100.00
2023-05-23T11:23:25.494Z,100.00
2023-05-23T11:25:55.534Z,100.00
2023-05-23T11:28:24.171Z,100.00
2023-05-23T11:30:52.585Z,100.00
2023-05-23T11:33:21.100Z,100.00
2023-05-23T11:35:52.121Z,100.00
2023-05-23T11:38:20.887Z,100.00
2023-05-23T11:40:49.901Z,100.00
2023-05-23T11:43:19.887Z,100.00
2023-05-23T11:45:48.115Z,100.00
2023-05-23T11:48:19.817Z,100.00
2023-05-23T11:50:50.551Z,100.00
2023-05-23T11:53:21.646Z,100.00
2023-05-23T11:55:58.898Z,100.00
2023-05-23T11:58:35.422Z,100.00
2023-05-23T12:01:06.602Z,100.00
2023-05-23T12:03:35.731Z,0.00
2023-05-23T12:06:05.108Z,0.00
2023-05-23T12:08:33.130Z,0.00
2023-05-23T12:11:02.670Z,0.00
2023-05-23T12:13:32.326Z,0.00
2023-05-23T12:16:01.947Z,0.00
2023-05-23T12:18:32.030Z,0.00
2023-05-23T12:21:01.319Z,0.00
2023-05-23T12:23:31.760Z,0.00
2023-05-23T12:26:01.320Z,0.00
2023-05-23T12:28:38.401Z,0.00
2023-05-23T12:31:14.604Z,0.00
2023-05-23T12:33:44.135Z,0.00
2023-05-23T12:36:23.850Z,0.00
2023-05-23T12:38:51.954Z,0.00
2023-05-23T12:41:22.721Z,0.00
2023-05-23T12:43:54.101Z,0.00
2023-05-23T12:46:22.784Z,0.00
2023-05-23T12:48:51.006Z,0.00
2023-05-23T12:51:20.199Z,0.00
2023-05-23T12:53:48.729Z,0.00
2023-05-23T12:56:16.756Z,0.00
2023-05-23T12:58:46.048Z,0.00
2023-05-23T13:01:21.900Z,0.00
2023-05-23T13:04:40.854Z,0.00
2023-05-23T13:07:28.525Z,0.00
2023-05-23T13:10:04.908Z,0.00
2023-05-23T13:13:04.432Z,0.00
2023-05-23T13:15:52.728Z,0.00
2023-05-23T13:18:41.289Z,0.00
2023-05-23T13:21:28.213Z,0.00
2023-05-23T13:24:52.504Z,0.00
2023-05-23T13:28:30.941Z,0.00
2023-05-23T13:30:59.341Z,0.00
2023-05-23T13:33:27.613Z,0.00
2023-05-23T13:36:00.711Z,0.00
2023-05-23T13:38:33.756Z,0.00
2023-05-23T13:41:07.804Z,0.00
2023-05-23T13:43:47.957Z,0.00
2023-05-23T13:46:29.893Z,0.00
2023-05-23T13:48:58.266Z,0.00
2023-05-23T13:51:45.044Z,0.00
2023-05-23T13:54:13.525Z,0.00
2023-05-23T13:56:45.468Z,0.00
2023-05-23T13:59:21.276Z,0.00
2023-05-23T14:01:53.159Z,0.00
2023-05-23T14:04:22.483Z,0.00
2023-05-23T14:07:12.778Z,0.00
2023-05-23T14:09:43.811Z,0.00
2023-05-23T14:12:14.352Z,0.00
2023-05-23T14:14:42.436Z,0.00
2023-05-23T14:17:27.161Z,0.00
2023-05-23T14:19:55.767Z,0.00
2023-05-23T14:22:28.063Z,0.00
2023-05-23T14:27:57.570Z,0.00
2023-05-23T14:30:40.343Z,0.00
2023-05-23T14:33:13.572Z,0.00
2023-05-23T14:35:43.082Z,0.00
2023-05-23T14:38:12.920Z,0.00
2023-05-23T14:40:41.110Z,0.00
2023-05-23T14:43:10.248Z,0.00
2023-05-23T14:45:39.390Z,0.00
2023-05-23T14:48:08.681Z,0.00
2023-05-23T14:50:37.312Z,0.00
2023-05-23T14:53:05.676Z,0.00
2023-05-23T14:55:35.163Z,0.00
2023-05-23T14:58:03.653Z,0.00
2023-05-23T15:00:32.396Z,0.00
2023-05-23T15:03:00.504Z,0.00
2023-05-23T15:05:28.476Z,0.00
2023-05-23T15:07:56.560Z,0.00
2023-05-23T15:10:25.741Z,0.00
2023-05-23T15:12:56.169Z,0.00
2023-05-23T15:15:24.335Z,0.00
2023-05-23T15:17:52.972Z,0.00
2023-05-23T15:20:21.118Z,0.00
2023-05-23T15:22:49.074Z,0.00
2023-05-23T15:25:26.985Z,0.00
2023-05-23T15:28:04.743Z,0.00
2023-05-23T15:30:32.793Z,0.00
2023-05-23T15:33:01.884Z,0.00
2023-05-23T15:35:30.110Z,0.00
2023-05-23T15:37:58.243Z,0.00
2023-05-23T15:40:26.474Z,0.00
2023-05-23T15:42:56.668Z,0.00
2023-05-23T15:45:27.268Z,0.00
2023-05-23T15:47:55.373Z,0.00
2023-05-23T15:50:23.726Z,0.00
2023-05-23T15:52:51.891Z,0.00
2023-05-23T15:55:20.154Z,0.00
2023-05-23T15:57:48.412Z,0.00
2023-05-23T16:00:16.992Z,0.00
2023-05-23T16:02:46.469Z,0.00
2023-05-23T16:05:14.737Z,0.00
2023-05-23T16:07:43.878Z,0.00
2023-05-23T16:10:12.425Z,0.00
2023-05-23T16:12:40.399Z,0.00
2023-05-23T16:15:09.409Z,0.00
2023-05-23T16:17:37.461Z,0.00
2023-05-23T16:20:15.543Z,0.00
2023-05-23T16:22:45.811Z,8.86
2023-05-23T16:25:14.228Z,0.00
2023-05-23T16:27:42.380Z,0.00
2023-05-23T16:30:11.030Z,0.00
2023-05-23T16:32:40.737Z,0.00
2023-05-23T16:35:14.337Z,0.00
2023-05-23T16:37:44.316Z,0.00
2023-05-23T16:40:13.168Z,0.00
2023-05-23T16:42:41.276Z,22.92
2023-05-23T16:45:10.921Z,63.14
2023-05-23T16:47:39.118Z,25.27
2023-05-23T16:50:08.718Z,7.22
2023-05-23T16:52:40.554Z,0.00
2023-05-23T16:55:09.267Z,0.00
2023-05-23T16:57:37.835Z,0.00
2023-05-23T17:00:07.738Z,0.00
2023-05-23T17:02:36.015Z,3.59
2023-05-23T17:05:04.205Z,0.00
2023-05-23T17:10:20.529Z,0.00
2023-05-23T17:12:48.555Z,0.00
2023-05-23T17:15:16.739Z,0.00
2023-05-23T17:17:45.009Z,2.48
2023-05-23T17:20:13.524Z,41.96
2023-05-23T17:22:42.026Z,67.98
2023-05-23T17:25:10.774Z,51.24
2023-05-23T17:27:40.289Z,45.29
2023-05-23T17:30:09.307Z,27.50
2023-05-23T17:32:39.572Z,41.85
2023-05-23T17:35:09.810Z,33.08
2023-05-23T17:37:37.856Z,63.98
2023-05-23T17:40:07.693Z,84.81
2023-05-23T17:42:35.660Z,88.22
2023-05-23T17:45:07.190Z,100.00
2023-05-23T17:47:35.245Z,100.00
2023-05-23T17:50:04.743Z,100.00
2023-05-23T17:52:33.018Z,100.00
2023-05-23T17:55:01.447Z,100.00
2023-05-23T17:57:30.546Z,100.00
2023-05-23T17:59:59.342Z,100.00
2023-05-23T18:02:34.711Z,100.00
2023-05-23T18:05:02.925Z,100.00
2023-05-23T18:07:32.312Z,100.00
2023-05-23T18:10:01.662Z,100.00
2023-05-23T18:12:30.973Z,100.00
2023-05-23T18:14:59.063Z,100.00
2023-05-23T18:17:29.912Z,100.00
2023-05-23T18:20:09.670Z,100.00
2023-05-23T18:23:09.859Z,100.00
2023-05-23T18:25:52.064Z,100.00
2023-05-23T18:28:24.209Z,100.00
2023-05-23T18:30:53.494Z,100.00
2023-05-23T18:33:45.613Z,100.00
2023-05-23T18:37:00.507Z,100.00
2023-05-23T18:39:28.663Z,100.00
2023-05-23T18:41:56.792Z,100.00
2023-05-23T18:44:26.254Z,100.00
2023-05-23T18:46:56.567Z,100.00
2023-05-23T18:49:27.632Z,100.00
2023-05-23T18:51:55.948Z,100.00
2023-05-23T18:54:25.251Z,100.00
2023-05-23T18:56:53.422Z,100.00
2023-05-23T18:59:22.510Z,100.00
2023-05-23T19:01:50.842Z,100.00
2023-05-23T19:04:19.401Z,100.00
2023-05-23T19:06:49.644Z,100.00
2023-05-23T19:09:17.693Z,100.00
2023-05-23T19:11:45.758Z,100.00
2023-05-23T19:14:14.932Z,100.00
2023-05-23T19:16:43.717Z,100.00
2023-05-23T19:19:12.481Z,100.00
2023-05-23T19:21:41.145Z,100.00
2023-05-23T19:24:10.805Z,100.00
2023-05-23T19:26:42.554Z,100.00
2023-05-23T19:29:10.916Z,100.00
2023-05-23T19:31:39.301Z,100.00
2023-05-23T19:34:08.260Z,100.00
2023-05-23T19:36:36.686Z,100.00
2023-05-23T19:39:06.912Z,100.00
2023-05-23T19:41:38.870Z,100.00
2023-05-23T19:44:08.036Z,100.00
2023-05-23T19:46:36.442Z,100.00
2023-05-23T19:49:04.540Z,100.00
2023-05-23T19:51:32.659Z,100.00
2023-05-23T19:54:01.389Z,100.00
2023-05-23T19:56:30.651Z,100.00
2023-05-23T19:59:00.207Z,100.00
2023-05-23T20:01:30.826Z,100.00
2023-05-23T20:03:59.046Z,100.00
2023-05-23T20:06:27.409Z,100.00
2023-05-23T20:08:55.807Z,100.00
2023-05-23T20:11:24.281Z,100.00
2023-05-23T20:13:52.395Z,100.00
2023-05-23T20:16:22.324Z,100.00
2023-05-23T20:18:50.553Z,100.00
2023-05-23T20:21:19.165Z,100.00
2023-05-23T20:23:47.477Z,100.00
2023-05-23T20:26:15.789Z,100.00
2023-05-23T20:28:43.764Z,100.00
2023-05-23T20:31:13.047Z,100.00
2023-05-23T20:33:43.028Z,100.00
2023-05-23T20:36:12.518Z,100.00
2023-05-23T20:38:41.819Z,100.00
2023-05-23T20:41:09.992Z,100.00
2023-05-23T20:43:38.367Z,100.00
2023-05-23T20:46:06.844Z,100.00
2023-05-23T20:48:35.066Z,100.00
2023-05-23T20:51:05.914Z,100.00
2023-05-23T20:53:34.213Z,100.00
2023-05-23T20:56:03.948Z,100.00
2023-05-23T20:58:32.021Z,100.00
2023-05-23T21:01:00.343Z,100.00
2023-05-23T21:03:29.264Z,100.00
2023-05-23T21:06:01.894Z,100.00
2023-05-23T21:08:33.081Z,100.00
2023-05-23T21:11:03.754Z,100.00
2023-05-23T21:13:32.084Z,100.00
2023-05-23T21:16:01.134Z,100.00
2023-05-23T21:18:29.184Z,100.00
2023-05-23T21:20:57.178Z,100.00
2023-05-23T21:23:25.471Z,100.00
2023-05-23T21:25:55.617Z,100.00
2023-05-23T21:28:26.936Z,100.00
2023-05-23T21:30:55.516Z,100.00
2023-05-23T21:33:23.575Z,100.00
2023-05-23T21:35:52.288Z,100.00
2023-05-23T21:38:20.370Z,100.00
2023-05-23T21:40:48.762Z,100.00
2023-05-23T21:43:18.314Z,100.00
2023-05-23T21:45:50.045Z,100.00
2023-05-23T21:48:18.720Z,100.00
2023-05-23T21:50:51.258Z,100.00
2023-05-23T21:53:31.484Z,100.00
2023-05-23T21:55:59.911Z,100.00
2023-05-23T21:58:30.810Z,100.00
2023-05-23T22:00:58.985Z,100.00
2023-05-23T22:03:27.115Z,100.00
2023-05-23T22:05:56.062Z,100.00
2023-05-23T22:08:24.237Z,100.00
2023-05-23T22:10:52.452Z,100.00
2023-05-23T22:13:20.497Z,100.00
2023-05-23T22:15:50.666Z,100.00
2023-05-23T22:18:18.659Z,100.00
2023-05-23T22:20:48.331Z,100.00
2023-05-23T22:23:25.889Z,100.00
2023-05-23T22:25:53.998Z,100.00
2023-05-23T22:28:23.844Z,100.00
2023-05-23T22:30:53.351Z,100.00
2023-05-23T22:33:22.967Z,100.00
2023-05-23T22:35:51.094Z,100.00
2023-05-23T22:38:19.241Z,100.00
2023-05-23T22:40:47.376Z,100.00
2023-05-23T22:43:16.740Z,100.00
2023-05-23T22:45:44.982Z,100.00
2023-05-23T22:48:15.837Z,100.00
2023-05-23T22:50:44.535Z,100.00
2023-05-23T22:53:12.880Z,100.00
2023-05-23T22:55:40.946Z,100.00
2023-05-23T22:58:12.258Z,100.00
2023-05-23T23:00:40.547Z,100.00
2023-05-23T23:03:09.277Z,100.00
2023-05-23T23:05:40.895Z,100.00
2023-05-23T23:08:09.085Z,100.00
2023-05-23T23:10:37.242Z,100.00
2023-05-23T23:13:05.483Z,100.00
2023-05-23T23:15:34.634Z,100.00
2023-05-23T23:18:02.685Z,100.00
2023-05-23T23:20:30.761Z,100.00
2023-05-23T23:23:00.420Z,100.00
2023-05-23T23:25:28.576Z,100.00
2023-05-23T23:27:56.648Z,100.00
2023-05-23T23:30:25.732Z,100.00
2023-05-23T23:32:53.740Z,100.00
2023-05-23T23:35:21.862Z,100.00
2023-05-23T23:37:51.214Z,100.00
2023-05-23T23:40:21.675Z,100.00
2023-05-23T23:42:56.755Z,100.00
2023-05-23T23:45:26.951Z,100.00
2023-05-23T23:47:55.054Z,100.00
2023-05-23T23:50:26.757Z,100.00
2023-05-23T23:53:04.608Z,100.00
2023-05-23T23:55:35.501Z,100.00
2023-05-23T23:58:03.544Z,100.00
